Time;durP1;ratioP1;P1;durP2;ratioP2;P2;SDS_P1;SDS_P2;PMS_P1;PMS_P2;Temp;Humidity;BMP_temperature;BMP_pressure;BME280_temperature;BME280_humidity;BME280_pressure;Samples;Min_cycle;Max_cycle;Signal;HPM_P1;HPM_P2
2022/01/03 00:00:12;;;;;;;14.43;3.42;;;;;;;9.39;80.25;101100.69;5015218;28;20057;-88
2022/01/03 00:02:39;;;;;;;11.57;2.75;;;;;;;9.32;80.60;101105.03;5015942;28;20025;-88
2022/01/03 00:05:05;;;;;;;12.38;2.88;;;;;;;9.32;80.52;101114.53;5015555;28;20050;-88
2022/01/03 00:07:36;;;;;;;11.23;2.80;;;;;;;9.33;80.67;101114.53;5015084;28;20099;-87
2022/01/03 00:10:03;;;;;;;12.25;3.00;;;;;;;9.24;80.24;101117.16;5014922;28;20116;-88
2022/01/03 00:12:29;;;;;;;;;;;;;;;9.38;80.29;101117.09;5015273;28;20018;-87
2022/01/03 00:14:56;;;;;;;12.60;3.08;;;;;;;9.34;80.27;101128.31;5014926;28;19917;-88
2022/01/03 00:17:21;;;;;;;11.82;3.00;;;;;;;9.29;80.48;101125.78;5015000;28;20100;-87
2022/01/03 00:19:55;;;;;;;14.77;3.27;;;;;;;9.24;80.43;101119.75;5014125;28;20755;-87
2022/01/03 00:22:52;;;;;;;16.45;2.97;;;;;;;9.23;80.65;101120.63;5015402;28;20018;-88
2022/01/03 00:25:20;;;;;;;9.77;2.60;;;;;;;9.21;80.43;101135.31;4954888;29;20054;-88
2022/01/03 00:28:07;;;;;;;10.05;2.60;;;;;;;9.19;80.49;101137.88;4959680;28;20171;-87
2022/01/03 00:30:35;;;;;;;11.52;2.90;;;;;;;9.20;80.43;101136.19;5003263;28;20034;-87
2022/01/03 00:33:02;;;;;;;19.13;3.92;;;;;;;9.29;79.62;101130.94;5021306;23;20502;-87
2022/01/03 00:35:29;;;;;;;18.33;3.63;;;;;;;9.32;79.96;101133.53;5013905;28;20050;-88
2022/01/03 00:37:56;;;;;;;18.30;3.35;;;;;;;9.35;79.65;101137.81;5010549;28;20038;-87
2022/01/03 00:40:22;;;;;;;11.57;3.08;;;;;;;9.33;80.00;101130.06;5014878;28;20030;-87
2022/01/03 00:42:49;;;;;;;14.27;3.27;;;;;;;9.34;79.63;101139.56;5014163;28;20040;-88
2022/01/03 00:45:14;;;;;;;11.93;3.13;;;;;;;9.37;79.23;101143.88;5015176;28;20030;-87
2022/01/03 00:47:39;;;;;;;13.40;2.80;;;;;;;9.37;79.48;101134.34;5013844;28;20034;-86
2022/01/03 00:50:16;;;;;;;12.07;3.20;;;;;;;9.37;79.37;101134.34;5015123;28;20026;-88
2022/01/03 00:52:42;;;;;;;11.02;3.00;;;;;;;9.35;78.92;101125.72;5014711;28;20541;-87
2022/01/03 00:55:08;;;;;;;10.80;3.10;;;;;;;9.36;79.07;101144.72;5013977;28;20058;-87
2022/01/03 00:57:45;;;;;;;13.93;3.37;;;;;;;9.37;78.56;101131.75;5013871;28;20494;-87
2022/01/03 01:00:12;;;;;;;14.13;3.50;;;;;;;9.41;78.63;101128.28;5014191;28;20403;-85
2022/01/03 01:02:38;;;;;;;13.20;3.35;;;;;;;9.40;78.94;101136.94;5013935;28;20026;-88
2022/01/03 01:05:05;;;;;;;11.35;3.20;;;;;;;9.41;78.81;101145.53;5014542;28;20037;-88
2022/01/03 01:07:32;;;;;;;15.23;3.40;;;;;;;9.40;78.81;101139.53;5014701;28;20528;-88
2022/01/03 01:10:00;;;;;;;15.23;3.72;;;;;;;9.38;78.48;101133.47;5013717;28;20030;-87
2022/01/03 01:12:29;;;;;;;13.85;3.58;;;;;;;9.40;78.15;101139.53;5014562;28;20462;-87
2022/01/03 01:14:54;;;;;;;10.32;3.30;;;;;;;9.42;78.57;101131.72;5013588;28;20025;-88
2022/01/03 01:17:20;;;;;;;12.20;3.33;;;;;;;9.42;78.11;101142.97;5012339;28;20025;-86
2022/01/03 01:19:46;;;;;;;17.02;3.70;;;;;;;9.46;78.51;101138.63;5014369;28;20056;-87
2022/01/03 01:22:12;;;;;;;14.13;3.80;;;;;;;9.41;77.83;101148.13;5014113;28;20022;-87
2022/01/03 01:24:48;;;;;;;15.35;3.80;;;;;;;9.43;78.16;101152.47;5013927;28;20049;-87
2022/01/03 01:29:57;;;;;;;15.52;3.55;;;;;;;9.43;78.22;101155.06;5012494;28;20041;-88
2022/01/03 01:32:23;;;;;;;12.97;3.83;;;;;;;9.40;78.58;101159.41;5012988;28;20026;-87
2022/01/03 01:34:51;;;;;;;14.27;3.70;;;;;;;9.39;77.79;101166.28;5013413;28;20018;-87
2022/01/03 01:37:19;;;;;;;11.68;3.17;;;;;;;9.39;78.42;101175.81;5013151;28;20022;-88
2022/01/03 01:39:49;;;;;;;14.77;3.70;;;;;;;9.38;78.18;101172.34;5013395;28;20034;-88
2022/01/03 01:42:17;;;;;;;13.68;3.72;;;;;;;9.34;78.40;101174.94;5014164;28;20030;-88
2022/01/03 01:44:47;;;;;;;18.27;3.60;;;;;;;9.35;78.23;101180.13;5012684;28;20056;-87
2022/01/03 01:47:14;;;;;;;15.10;3.65;;;;;;;9.37;78.32;101186.16;5013820;28;20111;-88
2022/01/03 01:49:59;;;;;;;14.60;3.90;;;;;;;9.36;78.61;101174.06;5013719;28;20022;-88
2022/01/03 01:52:25;;;;;;;17.40;3.70;;;;;;;9.40;78.03;101169.75;5013527;28;20046;-88
2022/01/03 01:55:00;;;;;;;15.73;3.60;;;;;;;9.37;78.10;101167.19;5012826;28;20092;-86
2022/01/03 01:57:37;;;;;;;11.40;3.33;;;;;;;9.35;78.31;101172.34;5013762;28;20041;-87
2022/01/03 02:00:07;;;;;;;17.08;3.63;;;;;;;9.29;78.38;101166.38;5012687;28;20037;-88
2022/01/03 02:02:47;;;;;;;11.20;3.45;;;;;;;9.23;78.75;101167.25;5014113;28;20029;-87
2022/01/03 02:05:33;;;;;;;11.23;2.92;;;;;;;9.16;78.92;101170.72;5012960;28;20037;-87
2022/01/03 02:08:07;;;;;;;11.93;2.83;;;;;;;9.14;79.21;101169.84;5013308;28;20068;-86
2022/01/03 02:10:37;;;;;;;11.27;3.03;;;;;;;9.11;79.05;101175.91;5008235;28;20435;-88
2022/01/03 02:13:02;;;;;;;9.25;2.65;;;;;;;9.05;79.30;101169.03;5012676;28;20418;-88
2022/01/03 02:15:31;;;;;;;10.10;2.77;;;;;;;9.00;79.55;101165.63;5013527;28;20022;-88
2022/01/03 02:17:56;;;;;;;9.23;3.03;;;;;;;8.93;79.69;101167.38;5013002;28;20045;-88
2022/01/03 02:20:26;;;;;;;10.63;3.17;;;;;;;8.96;79.58;101182.00;5013336;28;20030;-88
2022/01/03 02:23:04;;;;;;;10.70;2.90;;;;;;;8.90;80.00;101167.38;5013148;28;20029;-88
2022/01/03 02:25:35;;;;;;;10.70;3.13;;;;;;;8.86;80.22;101160.47;5013856;28;20035;-88
2022/01/03 02:28:00;;;;;;;11.07;2.63;;;;;;;8.82;80.18;101174.28;5012257;28;20096;-88
2022/01/03 02:30:29;;;;;;;10.30;2.60;;;;;;;8.81;80.21;101181.19;5013345;28;20482;-88
2022/01/03 02:32:54;;;;;;;12.18;2.75;;;;;;;8.79;80.26;101185.50;5012807;28;20490;-88
2022/01/03 02:35:21;;;;;;;10.20;2.70;;;;;;;8.73;80.58;101169.13;5012938;28;20041;-88
2022/01/03 02:37:47;;;;;;;12.18;3.08;;;;;;;8.74;80.33;101183.78;5013213;28;20034;-88
2022/01/03 02:40:28;;;;;;;9.90;2.60;;;;;;;8.76;80.38;101174.28;5012169;28;20470;-86
2022/01/03 02:42:54;;;;;;;9.27;2.47;;;;;;;8.71;80.59;101178.63;5002924;28;20117;-87
2022/01/03 02:45:22;;;;;;;10.47;2.60;;;;;;;8.71;80.74;101178.63;5015672;28;20172;-88
2022/01/03 02:47:53;;;;;;;14.40;2.83;;;;;;;8.69;81.04;101178.63;5024460;23;20030;-87
2022/01/03 02:50:21;;;;;;;10.60;2.90;;;;;;;8.70;80.65;101182.09;5015567;28;20041;-88
2022/01/03 02:52:46;;;;;;;7.20;2.22;;;;;;;8.68;80.96;101184.66;5016821;28;20390;-88
2022/01/03 02:55:13;;;;;;;9.50;2.70;;;;;;;8.68;80.68;101176.03;5016370;28;20030;-87
2022/01/03 02:57:41;;;;;;;9.15;2.42;;;;;;;8.70;80.81;101170.00;5016399;28;20545;-87
2022/01/03 03:00:11;;;;;;;8.82;2.60;;;;;;;8.73;80.47;101166.53;5016960;28;20025;-87
2022/01/03 03:02:36;;;;;;;5.70;2.30;;;;;;;8.68;80.81;101178.63;5016245;28;20026;-87
2022/01/03 03:05:05;;;;;;;8.10;2.50;;;;;;;8.68;80.93;101182.06;5016981;28;20441;-87
2022/01/03 03:07:30;;;;;;;7.57;2.55;;;;;;;8.65;80.96;101179.50;5016879;28;20501;-87
2022/01/03 03:10:06;;;;;;;11.63;3.07;;;;;;;8.64;81.02;101181.22;5016137;28;20109;-87
2022/01/03 03:12:32;;;;;;;10.87;2.93;;;;;;;8.64;81.33;101188.97;5016758;28;20105;-88
2022/01/03 03:15:16;;;;;;;9.85;2.70;;;;;;;8.65;80.88;101188.13;5016197;28;20717;-87
2022/01/03 03:17:42;;;;;;;12.55;3.17;;;;;;;8.62;81.50;101174.34;5016147;28;20052;-87
2022/01/03 03:20:26;;;;;;;16.33;3.33;;;;;;;8.63;81.10;101178.66;5017136;28;20025;-87
2022/01/03 03:22:52;;;;;;;9.38;2.85;;;;;;;8.59;81.24;101184.69;5015921;28;20026;-86
2022/01/03 03:25:35;;;;;;;12.68;3.10;;;;;;;8.60;81.22;101186.41;5016391;28;20033;-88
2022/01/03 03:28:04;;;;;;;12.30;3.10;;;;;;;8.60;81.39;101183.81;5016565;28;20075;-87
2022/01/03 03:30:41;;;;;;;16.17;3.47;;;;;;;8.58;81.59;101186.41;5014189;28;20061;-87
2022/01/03 03:33:32;;;;;;;10.70;2.88;;;;;;;8.62;81.43;101193.28;5016436;28;20034;-88
2022/01/03 03:36:01;;;;;;;14.73;2.97;;;;;;;8.63;81.24;101184.66;5016267;28;20470;-87
2022/01/03 03:38:27;;;;;;;14.90;3.05;;;;;;;8.64;81.55;101185.53;5016023;28;20037;-87
2022/01/03 03:40:54;;;;;;;12.35;2.83;;;;;;;8.68;81.61;101189.84;5016026;28;20378;-87
2022/01/03 03:43:20;;;;;;;15.27;3.35;;;;;;;8.65;81.49;101175.19;5016184;28;20053;-87
2022/01/03 03:45:45;;;;;;;14.63;3.03;;;;;;;8.73;81.38;101182.06;5015449;28;20104;-87
2022/01/03 03:48:11;;;;;;;16.83;3.33;;;;;;;8.75;81.46;101180.34;5016244;28;20038;-87
2022/01/03 03:50:37;;;;;;;9.70;2.90;;;;;;;8.74;81.24;101182.06;5015521;28;20497;-87
2022/01/03 03:53:03;;;;;;;14.47;3.20;;;;;;;8.76;81.30;101179.47;5016050;28;20026;-87
2022/01/03 03:55:28;;;;;;;13.52;3.38;;;;;;;8.80;81.51;101168.25;5015979;28;20022;-87
2022/01/03 03:57:53;;;;;;;9.10;2.67;;;;;;;8.77;81.26;101171.72;5015091;28;20034;-87
2022/01/03 04:00:37;;;;;;;8.90;2.63;;;;;;;8.74;81.48;101176.91;5016188;28;20137;-88
2022/01/03 04:03:08;;;;;;;13.00;2.88;;;;;;;8.72;81.51;101157.06;5015729;28;20117;-88
2022/01/03 04:05:51;;;;;;;12.55;2.80;;;;;;;8.73;81.58;101170.00;5015272;28;20474;-88
2022/01/03 04:08:22;;;;;;;13.80;2.60;;;;;;;8.71;81.87;101174.31;5015668;28;20087;-88
2022/01/03 04:10:59;;;;;;;14.88;3.10;;;;;;;8.73;81.61;101159.66;5015094;28;20025;-88
2022/01/03 04:13:27;;;;;;;;;;;;;;;8.73;81.68;101162.22;5015627;28;20025;-87
2022/01/03 04:15:52;;;;;;;13.45;3.10;;;;;;;8.66;81.97;101160.53;5015670;28;19951;-87
2022/01/03 04:18:17;;;;;;;14.53;2.90;;;;;;;8.74;81.53;101166.53;5015783;28;20497;-87
2022/01/03 04:20:43;;;;;;;13.07;3.47;;;;;;;8.75;81.57;101157.91;5014712;28;20026;-88
2022/01/03 04:23:08;;;;;;;15.20;2.90;;;;;;;8.75;81.58;101157.03;5015462;28;20071;-88
2022/01/03 04:25:42;;;;;;;10.90;2.75;;;;;;;8.74;81.51;101151.03;5015270;28;20025;-88
2022/01/03 04:28:14;;;;;;;13.75;3.17;;;;;;;8.72;81.49;101144.13;5015085;28;20050;-88
2022/01/03 04:30:39;;;;;;;12.20;3.00;;;;;;;8.72;81.65;101138.97;5015546;28;20033;-88
2022/01/03 04:33:04;;;;;;;14.57;3.27;;;;;;;8.72;81.73;101144.97;5014894;28;20030;-87
2022/01/03 04:35:30;;;;;;;12.60;2.90;;;;;;;8.75;81.49;101146.69;5015310;28;20029;-88
2022/01/03 04:37:55;;;;;;;17.17;3.38;;;;;;;8.73;81.70;101138.06;5015073;28;20025;-88
2022/01/03 04:40:20;;;;;;;16.40;3.27;;;;;;;8.76;81.66;101148.41;5014623;28;20062;-87
2022/01/03 04:42:57;;;;;;;14.27;3.17;;;;;;;8.74;81.57;101143.25;5014731;28;20156;-87
2022/01/03 04:45:22;;;;;;;14.30;3.33;;;;;;;8.79;81.57;101157.03;5014988;28;20056;-88
2022/01/03 04:47:48;;;;;;;15.47;3.13;;;;;;;8.80;81.54;101142.38;5014367;28;20474;-87
2022/01/03 04:50:13;;;;;;;15.23;3.00;;;;;;;8.80;81.53;101148.41;5015005;28;20101;-86
2022/01/03 04:52:39;;;;;;;18.27;3.90;;;;;;;8.85;81.06;101139.78;5014777;28;20022;-88
2022/01/03 04:55:19;;;;;;;12.45;2.67;;;;;;;8.83;81.54;101142.38;5014571;28;20403;-88
2022/01/03 04:57:44;;;;;;;9.00;2.40;;;;;;;8.77;81.56;101135.50;5014665;28;20034;-87
2022/01/03 05:00:10;;;;;;;15.47;3.20;;;;;;;8.85;81.34;101144.94;5014971;28;20033;-88
2022/01/03 05:02:37;;;;;;;12.57;2.70;;;;;;;8.85;81.27;101139.78;5013837;28;20029;-86
2022/01/03 05:05:03;;;;;;;13.35;3.03;;;;;;;8.79;81.50;101132.88;5014810;28;20101;-88
2022/01/03 05:07:29;;;;;;;14.82;2.97;;;;;;;8.84;81.19;101138.88;5014141;28;20479;-87
2022/01/03 05:09:54;;;;;;;12.10;3.08;;;;;;;8.85;81.23;101142.34;5013996;28;20037;-87
2022/01/03 05:12:19;;;;;;;13.10;3.00;;;;;;;8.86;81.16;101134.56;5014739;28;20041;-88
2022/01/03 05:14:45;;;;;;;16.37;3.10;;;;;;;8.89;80.98;101134.56;5013977;28;20044;-87
2022/01/03 05:17:12;;;;;;;12.17;2.67;;;;;;;8.86;81.43;101118.19;5013921;28;20045;-87
2022/01/03 05:19:38;;;;;;;13.65;2.80;;;;;;;8.87;81.41;101127.69;5014510;28;20381;-87
2022/01/03 05:22:04;;;;;;;15.53;3.37;;;;;;;8.86;81.42;101123.38;5013680;28;20113;-88
2022/01/03 05:24:29;;;;;;;10.33;2.77;;;;;;;8.88;81.50;101124.25;5014462;28;20022;-88
2022/01/03 05:26:55;;;;;;;13.03;2.70;;;;;;;8.87;81.66;101114.75;5014102;28;20068;-88
2022/01/03 05:29:21;;;;;;;9.98;2.60;;;;;;;8.86;81.28;101119.06;5013818;28;20026;-87
2022/01/03 05:31:55;;;;;;;11.57;2.50;;;;;;;8.89;81.21;101118.19;5014173;28;20026;-88
2022/01/03 05:34:21;;;;;;;15.45;3.17;;;;;;;8.83;81.35;101111.31;5014512;28;20092;-88
2022/01/03 05:36:46;;;;;;;13.20;2.67;;;;;;;8.91;80.91;101113.84;5013742;28;20033;-86
2022/01/03 05:39:12;;;;;;;13.00;2.60;;;;;;;8.87;81.48;101115.59;5014480;28;20026;-88
2022/01/03 05:41:38;;;;;;;11.48;2.85;;;;;;;8.87;81.26;101114.75;5014120;28;20373;-88
2022/01/03 05:44:04;;;;;;;13.07;2.80;;;;;;;8.84;81.46;101110.44;5013189;28;20025;-88
2022/01/03 05:46:29;;;;;;;11.47;3.10;;;;;;;8.84;81.26;101112.16;5013981;28;20028;-88
2022/01/03 05:48:55;;;;;;;17.70;3.73;;;;;;;8.82;81.36;101112.19;5013697;28;20045;-88
2022/01/03 05:51:23;;;;;;;14.20;3.17;;;;;;;8.83;81.26;101110.44;5013342;28;20105;-88
2022/01/03 05:53:48;;;;;;;16.15;2.90;;;;;;;8.79;81.37;101107.84;5013705;28;20489;-87
2022/01/03 05:56:14;;;;;;;13.00;2.60;;;;;;;8.80;81.27;101107.00;5013736;28;20188;-88
2022/01/03 05:58:39;;;;;;;11.43;3.10;;;;;;;8.85;81.23;101106.13;5012735;28;20026;-87
2022/01/03 06:01:04;;;;;;;12.10;2.73;;;;;;;8.83;81.62;101105.25;5013879;28;20077;-87
2022/01/03 06:03:35;;;;;;;12.15;2.58;;;;;;;8.81;81.25;101103.53;5013442;28;20526;-88
2022/01/03 06:08:28;;;;;;;11.43;2.70;;;;;;;8.88;81.13;101099.19;5013537;28;20102;-88
2022/01/03 06:10:54;;;;;;;11.37;2.53;;;;;;;8.86;81.11;101095.75;5013388;28;20049;-88
2022/01/03 06:13:20;;;;;;;12.70;2.55;;;;;;;8.86;81.32;101102.66;5012408;28;20731;-83
2022/01/03 06:15:46;;;;;;;12.73;3.03;;;;;;;8.86;81.28;101106.09;5012579;28;20410;-85
2022/01/03 06:18:13;;;;;;;9.27;2.10;;;;;;;8.86;81.45;101105.25;5012715;28;20303;-87
2022/01/03 06:20:40;;;;;;;11.70;2.33;;;;;;;8.83;81.12;101093.19;5012711;28;20021;-87
2022/01/03 06:23:05;;;;;;;;;;;;;;;8.93;80.93;101097.47;5013916;28;20049;-88
2022/01/03 06:25:47;;;;;;;13.17;2.40;;;;;;;8.81;81.08;101095.78;5013163;28;20412;-86
2022/01/03 06:28:13;;;;;;;9.57;2.42;;;;;;;8.75;81.46;101098.41;5012882;28;20029;-83
2022/01/03 06:30:41;;;;;;;11.87;2.40;;;;;;;8.79;81.41;101102.69;5012049;28;20037;-83
2022/01/03 06:33:22;;;;;;;12.32;2.35;;;;;;;8.75;81.48;101097.53;5011064;28;20037;-82
2022/01/03 06:35:47;;;;;;;7.72;2.03;;;;;;;8.70;81.84;101094.97;5013069;28;20072;-82
2022/01/03 06:38:12;;;;;;;8.50;2.10;;;;;;;8.73;81.86;101096.66;5012062;28;20025;-83
2022/01/03 06:40:41;;;;;;;8.07;1.90;;;;;;;8.65;81.94;101091.53;5011268;28;20030;-82
2022/01/03 06:43:06;;;;;;;9.85;2.15;;;;;;;8.70;81.57;101094.97;5012115;28;20390;-82
2022/01/03 06:45:31;;;;;;;11.23;2.00;;;;;;;8.62;82.04;101091.53;5012176;28;20030;-83
2022/01/03 06:47:56;;;;;;;11.23;2.45;;;;;;;8.62;81.91;101099.31;5011756;28;20050;-83
2022/01/03 06:50:22;;;;;;;10.18;2.10;;;;;;;8.58;83.12;101092.41;5012817;28;20022;-83
2022/01/03 06:53:00;;;;;;;8.87;1.90;;;;;;;8.58;82.72;101093.28;5011837;28;20455;-82
2022/01/03 06:55:25;;;;;;;9.27;2.00;;;;;;;8.52;83.25;101082.09;5011421;28;20505;-82
2022/01/03 06:57:51;;;;;;;7.83;1.73;;;;;;;8.52;82.77;101093.28;5011567;28;20061;-82
2022/01/03 07:00:17;;;;;;;5.70;1.90;;;;;;;8.50;83.45;101085.53;5013224;28;20032;-82
2022/01/03 07:02:57;;;;;;;7.23;1.97;;;;;;;8.46;83.46;101082.94;5011331;28;20497;-86
2022/01/03 07:05:23;;;;;;;6.60;1.90;;;;;;;8.47;84.02;101084.66;5012819;28;20033;-87
2022/01/03 07:07:49;;;;;;;12.65;2.30;;;;;;;8.48;83.78;101081.25;5066577;23;20058;-85
2022/01/03 07:10:17;;;;;;;9.05;2.38;;;;;;;8.46;83.77;101081.19;5012847;28;20401;-87
2022/01/03 07:12:53;;;;;;;7.55;1.88;;;;;;;8.45;84.22;101071.72;5011587;28;20037;-85
2022/01/03 07:20:57;;;;;;;7.47;1.85;;;;;;;8.44;84.84;101075.19;4989249;28;20048;-88
2022/01/03 07:23:22;;;;;;;5.90;1.70;;;;;;;8.42;84.27;101074.31;5012278;28;20030;-87
2022/01/03 07:25:48;;;;;;;11.40;2.40;;;;;;;8.37;85.36;101070.88;5012453;28;20072;-86
2022/01/03 07:28:15;;;;;;;7.53;1.90;;;;;;;8.40;84.70;101086.41;5011518;28;20161;-87
2022/01/03 07:30:40;;;;;;;6.97;2.13;;;;;;;8.41;84.38;101075.19;5012388;28;20394;-86
2022/01/03 07:33:06;;;;;;;6.90;2.07;;;;;;;8.37;85.27;101073.47;5015945;28;20033;-86
2022/01/03 07:35:31;;;;;;;5.93;1.67;;;;;;;8.30;85.06;101069.19;5015216;28;20030;-86
2022/01/03 07:37:58;;;;;;;11.93;2.60;;;;;;;8.31;85.15;101083.84;5015434;28;20049;-86
2022/01/03 07:40:24;;;;;;;9.77;2.08;;;;;;;8.24;85.05;101075.22;5016145;28;20433;-86
2022/01/03 07:42:49;;;;;;;10.67;2.17;;;;;;;8.24;84.97;101079.53;5014389;28;20369;-86
2022/01/03 07:45:14;;;;;;;9.20;2.20;;;;;;;8.23;84.97;101085.56;5016029;28;20476;-88
2022/01/03 07:47:40;;;;;;;7.80;2.03;;;;;;;8.19;85.19;101088.16;5015632;28;20068;-87
2022/01/03 07:50:07;;;;;;;5.97;1.85;;;;;;;8.19;84.84;101089.88;5015068;28;20402;-86
2022/01/03 07:52:38;;;;;;;4.07;1.80;;;;;;;8.13;84.87;101076.97;5016115;28;20022;-85
2022/01/03 07:55:22;;;;;;;10.43;2.10;;;;;;;8.18;84.94;101101.06;5015817;28;20030;-85
2022/01/03 07:58:00;;;;;;;6.68;2.10;;;;;;;8.23;84.46;101098.47;5015047;28;20065;-85
2022/01/03 08:00:41;;;;;;;8.65;2.30;;;;;;;8.21;84.86;101108.00;5015692;28;20116;-85
2022/01/03 08:03:23;;;;;;;8.05;1.80;;;;;;;8.27;85.06;101111.44;5015876;28;20398;-85
2022/01/03 08:05:49;;;;;;;9.45;2.00;;;;;;;8.30;84.65;101108.81;5014814;28;20026;-86
2022/01/03 08:08:14;;;;;;;7.27;2.20;;;;;;;8.31;85.31;101099.34;5015248;28;20053;-85
2022/01/03 08:10:46;;;;;;;10.38;2.20;;;;;;;8.35;85.17;101090.69;5015008;28;20033;-86
2022/01/03 08:13:12;;;;;;;12.68;2.53;;;;;;;8.43;84.31;101086.41;5015359;28;20026;-85
2022/01/03 08:15:38;;;;;;;10.80;2.63;;;;;;;8.44;84.68;101098.47;5014995;28;20121;-86
2022/01/03 08:18:04;;;;;;;10.55;2.42;;;;;;;8.41;84.18;101084.66;5014561;28;20041;-86
2022/01/03 08:20:29;;;;;;;13.05;2.50;;;;;;;8.47;84.08;101095.00;5015330;28;20140;-85
2022/01/03 08:23:02;;;;;;;10.47;2.60;;;;;;;8.45;84.20;101095.00;5015203;28;20390;-85
2022/01/03 08:25:30;;;;;;;9.02;2.30;;;;;;;8.50;83.95;101098.47;5014578;28;20036;-85
2022/01/03 08:27:56;;;;;;;11.30;2.80;;;;;;;8.50;84.08;101090.72;5014953;28;20040;-85
2022/01/03 08:30:34;;;;;;;10.53;2.40;;;;;;;8.52;83.96;101090.69;5015665;28;20417;-86
2022/01/03 08:33:03;;;;;;;9.77;2.25;;;;;;;8.52;83.96;101095.03;5014015;28;20030;-86
2022/01/03 08:35:28;;;;;;;8.75;2.30;;;;;;;8.53;84.31;101087.25;5015061;28;20052;-85
2022/01/03 08:38:04;;;;;;;12.27;2.83;;;;;;;8.58;84.04;101088.09;5014586;28;20419;-85
2022/01/03 08:40:31;;;;;;;9.18;2.20;;;;;;;8.60;83.56;101076.03;5012945;28;20096;-85
2022/01/03 08:42:57;;;;;;;9.00;2.40;;;;;;;8.63;83.91;101077.75;5014489;28;20022;-86
2022/01/03 08:45:26;;;;;;;8.30;2.28;;;;;;;8.67;83.62;101078.59;5014944;28;20064;-86
2022/01/03 08:47:54;;;;;;;8.15;2.22;;;;;;;8.63;83.98;101076.00;5013973;28;20018;-86
2022/01/03 08:50:19;;;;;;;8.50;2.30;;;;;;;8.63;83.87;101076.00;5014638;28;20390;-81
2022/01/03 08:52:46;;;;;;;9.37;2.40;;;;;;;8.61;84.17;101087.22;5014822;28;20183;-78
2022/01/03 08:55:11;;;;;;;10.82;2.42;;;;;;;8.63;83.78;101101.03;5014487;28;20040;-93
2022/01/03 08:57:38;;;;;;;13.57;2.50;;;;;;;8.75;83.00;101100.13;5015566;28;20034;-92
2022/01/03 09:00:05;;;;;;;9.93;2.35;;;;;;;8.65;83.53;101109.66;4996466;28;20438;-92
2022/01/03 09:02:49;;;;;;;;;;;;;;;8.73;83.15;101113.06;5007514;28;20104;-92
2022/01/03 09:05:15;;;;;;;14.40;3.08;;;;;;;8.71;83.83;101108.78;4996249;28;19921;-92
2022/01/03 09:07:58;;;;;;;11.88;2.42;;;;;;;8.69;83.71;101103.56;5011824;28;20048;-92
2022/01/03 09:10:24;;;;;;;10.02;2.45;;;;;;;8.85;83.04;101106.13;5015277;28;20026;-93
2022/01/03 09:12:49;;;;;;;11.60;2.40;;;;;;;8.85;83.31;101106.97;5015254;28;20116;-92
2022/01/03 09:15:14;;;;;;;10.65;2.35;;;;;;;8.89;83.35;101102.66;5015283;28;20025;-93
2022/01/03 09:18:06;;;;;;;14.02;2.50;;;;;;;9.00;82.67;101103.47;5025845;28;20026;-93
2022/01/03 09:20:49;;;;;;;7.18;2.20;;;;;;;9.01;83.04;101094.81;5015740;28;20092;-93
2022/01/03 09:23:23;;;;;;;9.55;2.42;;;;;;;9.03;82.70;101095.69;5014938;28;20092;-93
2022/01/03 09:28:52;;;;;;;7.68;2.30;;;;;;;9.08;82.52;101085.28;5014988;28;20508;-91
2022/01/03 09:31:23;;;;;;;7.13;2.33;;;;;;;9.08;82.48;101093.06;5015113;28;20022;-92
2022/01/03 09:33:49;;;;;;;11.15;2.40;;;;;;;9.08;82.42;101074.94;5014468;28;20022;-90
2022/01/03 09:36:15;;;;;;;10.93;2.80;;;;;;;9.14;82.08;101074.03;5014944;28;20466;-92
2022/01/03 09:39:03;;;;;;;13.65;2.70;;;;;;;9.19;81.37;101064.53;5029916;28;20026;-92
2022/01/03 09:52:09;;;;;;;14.27;2.88;;;;;;;9.19;81.57;101075.75;4612384;27;15032740;-93
2022/01/03 09:54:36;;;;;;;8.75;2.45;;;;;;;9.20;81.65;101072.28;5132075;28;20037;-92
2022/01/03 09:57:19;;;;;;;8.85;2.25;;;;;;;9.32;81.69;101081.72;5099788;28;20039;-92
2022/01/03 09:59:48;;;;;;;9.23;2.03;;;;;;;9.33;81.55;101065.31;5111403;28;20097;-91
2022/01/03 10:02:29;;;;;;;14.02;2.65;;;;;;;9.43;81.25;101071.28;5110787;28;20023;-84
2022/01/03 10:04:55;;;;;;;12.35;2.80;;;;;;;9.42;81.26;101054.00;5118523;28;20114;-91
2022/01/03 10:07:21;;;;;;;17.27;3.13;;;;;;;9.49;80.72;101068.66;5130812;28;20115;-90
2022/01/03 10:09:47;;;;;;;13.35;2.75;;;;;;;9.46;80.85;101068.69;5124290;28;20491;-90
2022/01/03 10:12:31;;;;;;;12.40;2.47;;;;;;;9.50;81.09;101066.91;5110603;28;20103;-89
2022/01/03 10:14:58;;;;;;;7.70;2.20;;;;;;;9.42;81.09;101052.31;5110959;28;20345;-92
2022/01/03 10:17:24;;;;;;;9.95;2.30;;;;;;;9.48;80.98;101059.16;5114583;28;20016;-92
2022/01/03 10:20:06;;;;;;;11.47;2.50;;;;;;;9.45;81.43;101055.75;5118293;28;20044;-91
2022/01/03 10:22:33;;;;;;;6.18;1.83;;;;;;;9.51;81.28;101059.16;5111064;28;20467;-90
2022/01/03 10:25:26;;;;;;;13.70;2.80;;;;;;;9.54;80.67;101074.66;5120531;28;20123;-93
2022/01/03 10:27:59;;;;;;;10.88;2.70;;;;;;;9.61;81.04;101079.81;5131692;28;20483;-92
2022/01/03 10:30:43;;;;;;;13.00;2.70;;;;;;;9.62;80.70;101068.56;5125942;28;20145;-92
2022/01/03 10:33:12;;;;;;;12.32;2.92;;;;;;;9.70;80.09;101057.25;5131505;28;20479;-92
2022/01/03 10:35:56;;;;;;;10.07;2.40;;;;;;;9.68;80.47;101055.56;5130475;28;20020;-91
2022/01/03 10:38:59;;;;;;;12.40;2.60;;;;;;;9.68;80.39;101061.59;5113981;28;20076;-93
2022/01/03 10:41:25;;;;;;;15.02;3.10;;;;;;;9.60;80.36;101050.44;5111119;28;20027;-92
2022/01/03 10:44:11;;;;;;;12.15;3.05;;;;;;;9.64;80.20;101048.66;5110715;28;20111;-93
2022/01/03 10:46:38;;;;;;;6.60;2.30;;;;;;;9.61;80.19;101040.94;5110726;28;20023;-93
2022/01/03 10:49:26;;;;;;;13.15;2.80;;;;;;;9.68;79.70;101048.63;5122185;28;20020;-92
2022/01/03 10:51:51;;;;;;;14.85;3.10;;;;;;;9.67;79.95;101039.16;5123428;28;20047;-92
2022/01/03 10:54:18;;;;;;;12.80;2.83;;;;;;;9.62;80.34;101025.38;5116930;28;20032;-92
2022/01/03 10:59:40;;;;;;;14.57;3.25;;;;;;;9.66;79.99;101016.69;5094990;28;20433;-92
2022/01/03 11:02:21;;;;;;;10.85;2.50;;;;;;;9.65;80.43;101009.81;5091875;28;20029;-92
2022/01/03 11:04:56;;;;;;;11.23;2.58;;;;;;;9.66;79.90;101003.75;5076706;28;20418;-93
2022/01/03 11:13:25;;;;;;;13.43;3.03;;;;;;;9.78;79.50;101004.50;5076438;28;20060;-92
2022/01/03 11:15:58;;;;;;;9.35;2.67;;;;;;;9.73;79.57;101005.41;5078298;28;20035;-91
2022/01/03 11:18:49;;;;;;;12.27;2.90;;;;;;;9.76;79.55;101009.69;5080548;28;20025;-91
2022/01/03 11:21:21;;;;;;;10.90;2.95;;;;;;;9.78;79.43;101009.69;5078316;28;20029;-92
2022/01/03 11:24:09;;;;;;;10.63;2.67;;;;;;;9.78;79.28;101002.75;5076155;28;20017;-92
2022/01/03 11:26:36;;;;;;;14.43;2.95;;;;;;;9.75;79.56;100989.81;5076066;28;20013;-91
2022/01/03 11:29:31;;;;;;;14.00;2.92;;;;;;;9.81;79.33;100994.09;5075736;28;20073;-91
2022/01/03 11:32:11;;;;;;;7.53;2.10;;;;;;;9.82;79.79;100995.81;5078804;28;20518;-92
2022/01/03 11:34:37;;;;;;;9.75;2.50;;;;;;;9.86;79.69;100990.56;5096262;28;20020;-91
2022/01/03 11:37:04;;;;;;;8.20;2.20;;;;;;;9.88;79.50;100991.44;5095689;28;20020;-92
2022/01/03 11:39:32;;;;;;;6.32;2.28;;;;;;;9.91;79.26;100984.50;5096112;28;20018;-90
2022/01/03 11:42:13;;;;;;;11.38;2.17;;;;;;;9.87;79.07;100971.56;5095132;28;20136;-91
2022/01/03 11:44:39;;;;;;;6.95;2.10;;;;;;;9.81;79.57;100968.16;5095618;28;20069;-92
2022/01/03 11:47:08;;;;;;;10.02;2.45;;;;;;;9.80;79.35;100971.63;5096024;28;20031;-92
2022/01/03 11:49:44;;;;;;;9.63;2.40;;;;;;;9.78;78.86;100970.81;5095376;28;20110;-91
2022/01/03 11:52:14;;;;;;;9.77;2.60;;;;;;;9.72;79.27;100959.63;5096095;28;20468;-91
2022/01/03 11:54:40;;;;;;;7.88;2.15;;;;;;;9.74;79.17;100960.47;5094285;28;20441;-90
2022/01/03 11:57:44;;;;;;;12.60;2.37;;;;;;;9.71;79.71;100938.91;5073671;28;20496;-91
2022/01/03 12:06:05;;;;;;;10.95;2.97;;;;;;;9.73;79.60;100956.16;5075478;28;20499;-91
2022/01/03 12:08:55;;;;;;;11.90;3.22;;;;;;;9.69;79.28;100946.69;5078697;28;20460;-88
2022/01/03 12:11:23;;;;;;;9.70;2.40;;;;;;;9.70;79.46;100944.97;5085415;28;20025;-88
2022/01/03 12:13:58;;;;;;;10.95;2.95;;;;;;;9.71;79.02;100944.94;5094246;28;20379;-87
2022/01/03 12:16:44;;;;;;;9.20;2.60;;;;;;;9.70;79.50;100942.38;5094569;28;20031;-88
2022/01/03 12:19:12;;;;;;;;;;;;;;;9.72;79.46;100935.44;5085419;28;20469;-88
2022/01/03 12:21:47;;;;;;;7.47;2.35;;;;;;;9.71;79.71;100926.78;5074228;28;20369;-88